sensor_id;sensor_type;location;lat;lon;timestamp;temperature;humidity
63047;DHT22;62025;39.238;9.126;2024-02-16T00:00:30;13.80;63.30
63047;DHT22;62025;39.238;9.126;2024-02-16T00:02:56;13.80;63.20
63047;DHT22;62025;39.238;9.126;2024-02-16T00:05:24;13.80;63.60
63047;DHT22;62025;39.238;9.126;2024-02-16T00:07:50;13.80;63.40
63047;DHT22;62025;39.238;9.126;2024-02-16T00:10:16;13.80;62.50
63047;DHT22;62025;39.238;9.126;2024-02-16T00:12:44;13.70;60.30
63047;DHT22;62025;39.238;9.126;2024-02-16T00:15:11;13.70;60.10
63047;DHT22;62025;39.238;9.126;2024-02-16T00:17:38;13.70;59.00
63047;DHT22;62025;39.238;9.126;2024-02-16T00:20:04;13.70;57.90
63047;DHT22;62025;39.238;9.126;2024-02-16T00:22:33;13.80;57.40
63047;DHT22;62025;39.238;9.126;2024-02-16T00:24:59;13.80;58.20
63047;DHT22;62025;39.238;9.126;2024-02-16T00:27:26;13.80;58.20
63047;DHT22;62025;39.238;9.126;2024-02-16T00:29:52;13.80;58.80
63047;DHT22;62025;39.238;9.126;2024-02-16T00:32:18;13.80;59.10
63047;DHT22;62025;39.238;9.126;2024-02-16T00:34:45;13.80;58.80
63047;DHT22;62025;39.238;9.126;2024-02-16T00:37:11;13.80;57.90
63047;DHT22;62025;39.238;9.126;2024-02-16T00:39:39;13.80;57.50
63047;DHT22;62025;39.238;9.126;2024-02-16T00:42:08;13.80;57.70
63047;DHT22;62025;39.238;9.126;2024-02-16T00:44:34;13.80;57.90
63047;DHT22;62025;39.238;9.126;2024-02-16T00:47:00;13.80;57.10
63047;DHT22;62025;39.238;9.126;2024-02-16T00:49:27;13.80;56.80
63047;DHT22;62025;39.238;9.126;2024-02-16T00:51:52;13.80;57.00
63047;DHT22;62025;39.238;9.126;2024-02-16T00:54:18;13.90;57.30
63047;DHT22;62025;39.238;9.126;2024-02-16T00:56:49;13.90;57.70
63047;DHT22;62025;39.238;9.126;2024-02-16T00:59:15;13.90;57.80
63047;DHT22;62025;39.238;9.126;2024-02-16T01:01:41;13.90;58.20
63047;DHT22;62025;39.238;9.126;2024-02-16T01:04:07;13.90;58.50
63047;DHT22;62025;39.238;9.126;2024-02-16T01:06:33;13.90;58.40
63047;DHT22;62025;39.238;9.126;2024-02-16T01:09:00;14.00;58.50
63047;DHT22;62025;39.238;9.126;2024-02-16T01:11:26;14.00;58.50
63047;DHT22;62025;39.238;9.126;2024-02-16T01:13:52;14.00;58.70
63047;DHT22;62025;39.238;9.126;2024-02-16T01:16:18;14.00;58.20
63047;DHT22;62025;39.238;9.126;2024-02-16T01:18:44;14.10;57.30
63047;DHT22;62025;39.238;9.126;2024-02-16T01:21:11;14.10;56.70
63047;DHT22;62025;39.238;9.126;2024-02-16T01:23:37;14.20;57.00
63047;DHT22;62025;39.238;9.126;2024-02-16T01:26:03;14.20;57.10
63047;DHT22;62025;39.238;9.126;2024-02-16T01:28:29;14.10;57.40
63047;DHT22;62025;39.238;9.126;2024-02-16T01:30:56;14.20;58.30
63047;DHT22;62025;39.238;9.126;2024-02-16T01:33:22;14.10;60.50
63047;DHT22;62025;39.238;9.126;2024-02-16T01:35:48;14.00;61.60
63047;DHT22;62025;39.238;9.126;2024-02-16T01:38:14;14.00;61.90
63047;DHT22;62025;39.238;9.126;2024-02-16T01:40:40;14.00;61.70
63047;DHT22;62025;39.238;9.126;2024-02-16T01:43:06;14.10;61.00
63047;DHT22;62025;39.238;9.126;2024-02-16T01:45:32;14.00;60.60
63047;DHT22;62025;39.238;9.126;2024-02-16T01:47:58;14.10;60.50
63047;DHT22;62025;39.238;9.126;2024-02-16T01:50:25;14.00;60.90
63047;DHT22;62025;39.238;9.126;2024-02-16T01:52:51;14.00;59.70
63047;DHT22;62025;39.238;9.126;2024-02-16T01:55:18;13.90;58.00
63047;DHT22;62025;39.238;9.126;2024-02-16T01:57:47;14.00;57.10
63047;DHT22;62025;39.238;9.126;2024-02-16T02:00:15;14.00;55.40
63047;DHT22;62025;39.238;9.126;2024-02-16T02:02:44;14.00;54.00
63047;DHT22;62025;39.238;9.126;2024-02-16T02:05:11;14.00;53.80
63047;DHT22;62025;39.238;9.126;2024-02-16T02:07:37;14.00;51.50
63047;DHT22;62025;39.238;9.126;2024-02-16T02:10:03;14.00;49.60
63047;DHT22;62025;39.238;9.126;2024-02-16T02:12:30;14.00;49.40
63047;DHT22;62025;39.238;9.126;2024-02-16T02:14:56;14.10;49.80
63047;DHT22;62025;39.238;9.126;2024-02-16T02:17:22;14.10;49.30
63047;DHT22;62025;39.238;9.126;2024-02-16T02:19:48;14.20;49.40
63047;DHT22;62025;39.238;9.126;2024-02-16T02:22:19;14.10;49.90
63047;DHT22;62025;39.238;9.126;2024-02-16T02:24:45;14.10;51.00
63047;DHT22;62025;39.238;9.126;2024-02-16T02:27:13;14.10;51.80
63047;DHT22;62025;39.238;9.126;2024-02-16T02:29:39;14.10;52.20
63047;DHT22;62025;39.238;9.126;2024-02-16T02:32:06;14.20;52.70
63047;DHT22;62025;39.238;9.126;2024-02-16T02:34:33;14.20;53.40
63047;DHT22;62025;39.238;9.126;2024-02-16T02:36:59;14.30;53.60
63047;DHT22;62025;39.238;9.126;2024-02-16T02:39:25;14.20;53.40
63047;DHT22;62025;39.238;9.126;2024-02-16T02:41:53;14.20;53.60
63047;DHT22;62025;39.238;9.126;2024-02-16T02:44:19;14.20;53.90
63047;DHT22;62025;39.238;9.126;2024-02-16T02:46:47;14.20;54.20
63047;DHT22;62025;39.238;9.126;2024-02-16T02:49:13;14.20;54.40
63047;DHT22;62025;39.238;9.126;2024-02-16T02:51:39;14.30;54.60
63047;DHT22;62025;39.238;9.126;2024-02-16T02:54:05;14.20;55.10
63047;DHT22;62025;39.238;9.126;2024-02-16T02:56:31;14.10;55.80
63047;DHT22;62025;39.238;9.126;2024-02-16T02:58:57;14.20;56.30
63047;DHT22;62025;39.238;9.126;2024-02-16T03:01:24;14.30;56.40
63047;DHT22;62025;39.238;9.126;2024-02-16T03:03:50;14.20;56.20
63047;DHT22;62025;39.238;9.126;2024-02-16T03:06:19;14.20;56.80
63047;DHT22;62025;39.238;9.126;2024-02-16T03:08:46;14.20;57.20
63047;DHT22;62025;39.238;9.126;2024-02-16T03:11:12;14.30;57.50
63047;DHT22;62025;39.238;9.126;2024-02-16T03:13:38;14.30;57.80
63047;DHT22;62025;39.238;9.126;2024-02-16T03:16:04;14.30;57.80
63047;DHT22;62025;39.238;9.126;2024-02-16T03:18:31;14.30;57.90
63047;DHT22;62025;39.238;9.126;2024-02-16T03:20:57;14.30;57.70
63047;DHT22;62025;39.238;9.126;2024-02-16T03:23:23;14.30;57.10
63047;DHT22;62025;39.238;9.126;2024-02-16T03:25:49;14.30;57.70
63047;DHT22;62025;39.238;9.126;2024-02-16T03:28:15;14.30;57.70
63047;DHT22;62025;39.238;9.126;2024-02-16T03:30:43;14.30;57.70
63047;DHT22;62025;39.238;9.126;2024-02-16T03:33:10;14.30;57.00
63047;DHT22;62025;39.238;9.126;2024-02-16T03:35:36;14.30;56.70
63047;DHT22;62025;39.238;9.126;2024-02-16T03:38:03;14.30;55.90
63047;DHT22;62025;39.238;9.126;2024-02-16T03:40:29;14.30;55.70
63047;DHT22;62025;39.238;9.126;2024-02-16T03:42:55;14.30;56.00
63047;DHT22;62025;39.238;9.126;2024-02-16T03:45:23;14.30;56.90
63047;DHT22;62025;39.238;9.126;2024-02-16T03:47:49;14.30;57.80
63047;DHT22;62025;39.238;9.126;2024-02-16T03:50:18;14.30;57.90
63047;DHT22;62025;39.238;9.126;2024-02-16T03:52:44;14.30;57.80
63047;DHT22;62025;39.238;9.126;2024-02-16T03:55:10;14.30;57.70
63047;DHT22;62025;39.238;9.126;2024-02-16T03:57:37;14.30;57.60
63047;DHT22;62025;39.238;9.126;2024-02-16T04:00:05;14.40;56.80
63047;DHT22;62025;39.238;9.126;2024-02-16T04:02:39;14.30;55.70
63047;DHT22;62025;39.238;9.126;2024-02-16T04:05:05;14.30;55.40
63047;DHT22;62025;39.238;9.126;2024-02-16T04:07:34;14.30;55.60
63047;DHT22;62025;39.238;9.126;2024-02-16T04:10:00;14.30;55.50
63047;DHT22;62025;39.238;9.126;2024-02-16T04:12:26;14.40;55.60
63047;DHT22;62025;39.238;9.126;2024-02-16T04:14:52;14.30;56.00
63047;DHT22;62025;39.238;9.126;2024-02-16T04:17:18;14.30;56.30
63047;DHT22;62025;39.238;9.126;2024-02-16T04:19:44;14.40;56.40
63047;DHT22;62025;39.238;9.126;2024-02-16T04:22:10;14.30;56.50
63047;DHT22;62025;39.238;9.126;2024-02-16T04:24:36;14.30;56.80
63047;DHT22;62025;39.238;9.126;2024-02-16T04:27:02;14.30;56.90
63047;DHT22;62025;39.238;9.126;2024-02-16T04:29:28;14.40;56.90
63047;DHT22;62025;39.238;9.126;2024-02-16T04:31:54;14.30;56.50
63047;DHT22;62025;39.238;9.126;2024-02-16T04:34:20;14.40;56.50
63047;DHT22;62025;39.238;9.126;2024-02-16T04:36:45;14.40;55.90
63047;DHT22;62025;39.238;9.126;2024-02-16T04:39:11;14.40;54.70
63047;DHT22;62025;39.238;9.126;2024-02-16T04:41:40;14.40;54.70
63047;DHT22;62025;39.238;9.126;2024-02-16T04:44:06;14.40;53.30
63047;DHT22;62025;39.238;9.126;2024-02-16T04:46:32;14.40;51.80
63047;DHT22;62025;39.238;9.126;2024-02-16T04:48:58;14.40;52.10
63047;DHT22;62025;39.238;9.126;2024-02-16T04:51:24;14.40;52.30
63047;DHT22;62025;39.238;9.126;2024-02-16T04:53:50;14.40;52.60
63047;DHT22;62025;39.238;9.126;2024-02-16T04:56:16;14.40;52.80
63047;DHT22;62025;39.238;9.126;2024-02-16T04:58:42;14.40;52.60
63047;DHT22;62025;39.238;9.126;2024-02-16T05:01:08;14.30;53.30
63047;DHT22;62025;39.238;9.126;2024-02-16T05:03:34;14.40;53.60
63047;DHT22;62025;39.238;9.126;2024-02-16T05:06:00;14.40;52.90
63047;DHT22;62025;39.238;9.126;2024-02-16T05:08:26;14.40;53.30
63047;DHT22;62025;39.238;9.126;2024-02-16T05:10:52;14.50;53.50
63047;DHT22;62025;39.238;9.126;2024-02-16T05:13:18;14.40;53.90
63047;DHT22;62025;39.238;9.126;2024-02-16T05:15:44;14.50;54.10
63047;DHT22;62025;39.238;9.126;2024-02-16T05:18:10;14.50;54.00
63047;DHT22;62025;39.238;9.126;2024-02-16T05:20:40;14.50;54.40
63047;DHT22;62025;39.238;9.126;2024-02-16T05:23:06;14.50;54.70
63047;DHT22;62025;39.238;9.126;2024-02-16T05:25:32;14.50;55.10
63047;DHT22;62025;39.238;9.126;2024-02-16T05:27:58;14.40;55.30
63047;DHT22;62025;39.238;9.126;2024-02-16T05:30:24;14.40;54.70
63047;DHT22;62025;39.238;9.126;2024-02-16T05:32:50;14.40;54.30
63047;DHT22;62025;39.238;9.126;2024-02-16T05:35:18;14.50;54.00
63047;DHT22;62025;39.238;9.126;2024-02-16T05:37:48;14.40;54.40
63047;DHT22;62025;39.238;9.126;2024-02-16T05:40:17;14.40;54.70
63047;DHT22;62025;39.238;9.126;2024-02-16T05:42:55;14.50;54.90
63047;DHT22;62025;39.238;9.126;2024-02-16T05:45:24;14.50;55.20
63047;DHT22;62025;39.238;9.126;2024-02-16T05:47:52;14.40;55.80
63047;DHT22;62025;39.238;9.126;2024-02-16T05:50:21;14.30;56.30
63047;DHT22;62025;39.238;9.126;2024-02-16T05:52:47;14.30;55.60
63047;DHT22;62025;39.238;9.126;2024-02-16T05:55:15;14.30;55.50
63047;DHT22;62025;39.238;9.126;2024-02-16T05:57:44;14.20;54.80
63047;DHT22;62025;39.238;9.126;2024-02-16T06:00:11;14.10;54.20
63047;DHT22;62025;39.238;9.126;2024-02-16T06:02:39;14.00;53.40
63047;DHT22;62025;39.238;9.126;2024-02-16T06:05:05;14.10;53.40
63047;DHT22;62025;39.238;9.126;2024-02-16T06:07:31;14.20;53.40
63047;DHT22;62025;39.238;9.126;2024-02-16T06:09:57;14.30;53.40
63047;DHT22;62025;39.238;9.126;2024-02-16T06:12:24;14.30;52.60
63047;DHT22;62025;39.238;9.126;2024-02-16T06:14:50;14.30;52.70
63047;DHT22;62025;39.238;9.126;2024-02-16T06:17:16;14.30;52.40
63047;DHT22;62025;39.238;9.126;2024-02-16T06:19:43;14.30;52.40
63047;DHT22;62025;39.238;9.126;2024-02-16T06:22:09;14.30;52.00
63047;DHT22;62025;39.238;9.126;2024-02-16T06:24:36;14.30;50.90
63047;DHT22;62025;39.238;9.126;2024-02-16T06:27:03;14.30;51.70
63047;DHT22;62025;39.238;9.126;2024-02-16T06:29:29;14.30;51.40
63047;DHT22;62025;39.238;9.126;2024-02-16T06:31:56;14.30;51.50
63047;DHT22;62025;39.238;9.126;2024-02-16T06:34:22;14.30;51.90
63047;DHT22;62025;39.238;9.126;2024-02-16T06:36:48;14.30;51.70
63047;DHT22;62025;39.238;9.126;2024-02-16T06:39:16;14.30;51.80
63047;DHT22;62025;39.238;9.126;2024-02-16T06:41:44;14.30;52.10
63047;DHT22;62025;39.238;9.126;2024-02-16T06:44:15;14.30;52.10
63047;DHT22;62025;39.238;9.126;2024-02-16T06:46:45;14.30;52.20
63047;DHT22;62025;39.238;9.126;2024-02-16T06:49:10;14.30;52.30
63047;DHT22;62025;39.238;9.126;2024-02-16T06:51:37;14.40;52.60
63047;DHT22;62025;39.238;9.126;2024-02-16T06:54:03;14.30;52.60
63047;DHT22;62025;39.238;9.126;2024-02-16T06:56:30;14.50;52.80
63047;DHT22;62025;39.238;9.126;2024-02-16T06:58:56;14.50;53.00
63047;DHT22;62025;39.238;9.126;2024-02-16T07:01:22;14.50;53.10
63047;DHT22;62025;39.238;9.126;2024-02-16T07:03:48;14.60;53.20
63047;DHT22;62025;39.238;9.126;2024-02-16T07:06:14;14.50;53.10
63047;DHT22;62025;39.238;9.126;2024-02-16T07:08:41;14.60;53.00
63047;DHT22;62025;39.238;9.126;2024-02-16T07:11:08;14.70;53.10
63047;DHT22;62025;39.238;9.126;2024-02-16T07:13:40;14.70;53.40
63047;DHT22;62025;39.238;9.126;2024-02-16T07:16:08;14.70;53.80
63047;DHT22;62025;39.238;9.126;2024-02-16T07:18:34;14.80;54.10
63047;DHT22;62025;39.238;9.126;2024-02-16T07:21:01;14.80;54.30
63047;DHT22;62025;39.238;9.126;2024-02-16T07:23:27;14.80;54.00
63047;DHT22;62025;39.238;9.126;2024-02-16T07:25:55;14.80;53.90
63047;DHT22;62025;39.238;9.126;2024-02-16T07:28:22;14.80;54.20
63047;DHT22;62025;39.238;9.126;2024-02-16T07:30:49;14.80;54.50
63047;DHT22;62025;39.238;9.126;2024-02-16T07:33:16;14.80;54.00
63047;DHT22;62025;39.238;9.126;2024-02-16T07:35:42;14.80;53.60
63047;DHT22;62025;39.238;9.126;2024-02-16T07:38:08;14.90;53.50
63047;DHT22;62025;39.238;9.126;2024-02-16T07:40:34;14.90;53.20
63047;DHT22;62025;39.238;9.126;2024-02-16T07:43:01;14.80;53.90
63047;DHT22;62025;39.238;9.126;2024-02-16T07:45:27;14.90;53.30
63047;DHT22;62025;39.238;9.126;2024-02-16T07:47:53;14.90;53.00
63047;DHT22;62025;39.238;9.126;2024-02-16T07:50:19;15.00;52.10
63047;DHT22;62025;39.238;9.126;2024-02-16T07:52:46;15.10;50.80
63047;DHT22;62025;39.238;9.126;2024-02-16T07:55:13;15.10;50.30
63047;DHT22;62025;39.238;9.126;2024-02-16T07:57:39;15.20;50.30
63047;DHT22;62025;39.238;9.126;2024-02-16T08:00:06;15.30;50.50
63047;DHT22;62025;39.238;9.126;2024-02-16T08:02:32;15.40;50.70
63047;DHT22;62025;39.238;9.126;2024-02-16T08:04:58;15.60;50.50
63047;DHT22;62025;39.238;9.126;2024-02-16T08:07:24;15.80;50.90
63047;DHT22;62025;39.238;9.126;2024-02-16T08:09:50;15.80;51.30
63047;DHT22;62025;39.238;9.126;2024-02-16T08:12:16;15.90;51.30
63047;DHT22;62025;39.238;9.126;2024-02-16T08:14:42;16.00;51.80
63047;DHT22;62025;39.238;9.126;2024-02-16T08:17:09;15.90;52.20
63047;DHT22;62025;39.238;9.126;2024-02-16T08:19:38;15.90;52.60
63047;DHT22;62025;39.238;9.126;2024-02-16T08:22:06;15.80;52.80
63047;DHT22;62025;39.238;9.126;2024-02-16T08:24:36;15.80;52.50
63047;DHT22;62025;39.238;9.126;2024-02-16T08:27:03;15.80;52.70
63047;DHT22;62025;39.238;9.126;2024-02-16T08:29:32;15.90;53.20
63047;DHT22;62025;39.238;9.126;2024-02-16T08:31:58;15.90;53.10
63047;DHT22;62025;39.238;9.126;2024-02-16T08:34:24;16.00;53.00
63047;DHT22;62025;39.238;9.126;2024-02-16T08:36:51;16.00;52.60
63047;DHT22;62025;39.238;9.126;2024-02-16T08:39:17;16.10;51.70
63047;DHT22;62025;39.238;9.126;2024-02-16T08:41:45;16.20;52.10
63047;DHT22;62025;39.238;9.126;2024-02-16T08:44:14;16.30;51.80
63047;DHT22;62025;39.238;9.126;2024-02-16T08:46:40;16.30;52.00
63047;DHT22;62025;39.238;9.126;2024-02-16T08:49:06;16.40;51.60
63047;DHT22;62025;39.238;9.126;2024-02-16T08:51:32;16.70;51.70
63047;DHT22;62025;39.238;9.126;2024-02-16T08:53:59;16.80;51.50
63047;DHT22;62025;39.238;9.126;2024-02-16T08:56:26;16.80;51.50
63047;DHT22;62025;39.238;9.126;2024-02-16T08:58:52;16.70;51.70
63047;DHT22;62025;39.238;9.126;2024-02-16T09:01:18;16.70;51.10
63047;DHT22;62025;39.238;9.126;2024-02-16T09:03:44;16.80;50.80
63047;DHT22;62025;39.238;9.126;2024-02-16T09:06:10;16.70;49.50
63047;DHT22;62025;39.238;9.126;2024-02-16T09:08:39;16.90;48.90
63047;DHT22;62025;39.238;9.126;2024-02-16T09:11:05;16.90;47.50
63047;DHT22;62025;39.238;9.126;2024-02-16T09:13:35;17.00;46.00
63047;DHT22;62025;39.238;9.126;2024-02-16T09:16:03;17.10;45.70
63047;DHT22;62025;39.238;9.126;2024-02-16T09:18:29;17.10;46.20
63047;DHT22;62025;39.238;9.126;2024-02-16T09:20:55;17.10;45.50
63047;DHT22;62025;39.238;9.126;2024-02-16T09:23:21;17.10;45.20
63047;DHT22;62025;39.238;9.126;2024-02-16T09:25:47;17.30;43.90
63047;DHT22;62025;39.238;9.126;2024-02-16T09:28:14;17.30;44.00
63047;DHT22;62025;39.238;9.126;2024-02-16T09:30:40;17.60;45.00
63047;DHT22;62025;39.238;9.126;2024-02-16T09:33:09;17.90;43.10
63047;DHT22;62025;39.238;9.126;2024-02-16T09:35:35;18.20;42.70
63047;DHT22;62025;39.238;9.126;2024-02-16T09:38:01;18.40;41.80
63047;DHT22;62025;39.238;9.126;2024-02-16T09:40:27;18.70;40.00
63047;DHT22;62025;39.238;9.126;2024-02-16T09:42:53;19.00;39.80
63047;DHT22;62025;39.238;9.126;2024-02-16T09:45:19;19.50;39.60
63047;DHT22;62025;39.238;9.126;2024-02-16T09:47:46;19.40;39.50
63047;DHT22;62025;39.238;9.126;2024-02-16T09:50:15;19.50;39.00
63047;DHT22;62025;39.238;9.126;2024-02-16T09:52:47;19.80;37.80
63047;DHT22;62025;39.238;9.126;2024-02-16T09:55:15;19.80;37.70
63047;DHT22;62025;39.238;9.126;2024-02-16T09:57:41;19.50;38.40
63047;DHT22;62025;39.238;9.126;2024-02-16T10:00:10;19.70;39.00
63047;DHT22;62025;39.238;9.126;2024-02-16T10:02:43;19.30;40.20
63047;DHT22;62025;39.238;9.126;2024-02-16T10:05:13;19.10;40.70
63047;DHT22;62025;39.238;9.126;2024-02-16T10:07:41;19.10;41.10
63047;DHT22;62025;39.238;9.126;2024-02-16T10:10:27;18.90;41.70
63047;DHT22;62025;39.238;9.126;2024-02-16T10:15:34;18.30;44.30
63047;DHT22;62025;39.238;9.126;2024-02-16T10:18:01;18.20;45.20
63047;DHT22;62025;39.238;9.126;2024-02-16T10:20:29;18.30;46.20
63047;DHT22;62025;39.238;9.126;2024-02-16T10:25:37;18.80;46.40
63047;DHT22;62025;39.238;9.126;2024-02-16T10:28:05;18.60;46.90
63047;DHT22;62025;39.238;9.126;2024-02-16T10:30:38;18.40;47.90
63047;DHT22;62025;39.238;9.126;2024-02-16T10:33:06;18.40;48.50
63047;DHT22;62025;39.238;9.126;2024-02-16T10:35:35;18.30;49.10
63047;DHT22;62025;39.238;9.126;2024-02-16T10:38:05;18.50;48.90
63047;DHT22;62025;39.238;9.126;2024-02-16T10:40:33;18.40;49.30
63047;DHT22;62025;39.238;9.126;2024-02-16T10:43:04;18.20;49.80
63047;DHT22;62025;39.238;9.126;2024-02-16T10:45:35;18.20;49.60
63047;DHT22;62025;39.238;9.126;2024-02-16T10:48:03;18.20;50.40
63047;DHT22;62025;39.238;9.126;2024-02-16T10:50:32;18.30;50.50
63047;DHT22;62025;39.238;9.126;2024-02-16T10:53:43;18.30;50.50
63047;DHT22;62025;39.238;9.126;2024-02-16T10:55:57;18.30;50.80
63047;DHT22;62025;39.238;9.126;2024-02-16T10:58:26;18.40;50.30
63047;DHT22;62025;39.238;9.126;2024-02-16T11:00:54;18.40;49.60
63047;DHT22;62025;39.238;9.126;2024-02-16T11:03:22;18.40;49.50
63047;DHT22;62025;39.238;9.126;2024-02-16T11:05:50;18.60;49.60
63047;DHT22;62025;39.238;9.126;2024-02-16T11:08:20;18.50;50.30
63047;DHT22;62025;39.238;9.126;2024-02-16T11:10:56;18.50;50.60
63047;DHT22;62025;39.238;9.126;2024-02-16T11:13:24;18.40;51.40
63047;DHT22;62025;39.238;9.126;2024-02-16T11:16:01;18.40;51.70
63047;DHT22;62025;39.238;9.126;2024-02-16T11:18:29;18.60;51.60
63047;DHT22;62025;39.238;9.126;2024-02-16T11:20:59;18.40;52.30
63047;DHT22;62025;39.238;9.126;2024-02-16T11:23:35;18.40;52.00
63047;DHT22;62025;39.238;9.126;2024-02-16T11:26:08;18.20;52.90
63047;DHT22;62025;39.238;9.126;2024-02-16T11:28:40;18.20;53.10
63047;DHT22;62025;39.238;9.126;2024-02-16T11:31:07;18.20;52.30
63047;DHT22;62025;39.238;9.126;2024-02-16T11:33:34;18.00;52.80
63047;DHT22;62025;39.238;9.126;2024-02-16T11:36:05;18.00;53.00
63047;DHT22;62025;39.238;9.126;2024-02-16T11:38:34;17.90;53.90
63047;DHT22;62025;39.238;9.126;2024-02-16T11:41:02;18.00;53.90
63047;DHT22;62025;39.238;9.126;2024-02-16T11:43:35;18.30;54.20
63047;DHT22;62025;39.238;9.126;2024-02-16T11:46:11;18.30;54.20
63047;DHT22;62025;39.238;9.126;2024-02-16T11:48:38;18.30;54.30
63047;DHT22;62025;39.238;9.126;2024-02-16T11:51:05;17.90;55.20
63047;DHT22;62025;39.238;9.126;2024-02-16T11:53:32;17.90;56.00
63047;DHT22;62025;39.238;9.126;2024-02-16T11:55:59;17.80;57.30
63047;DHT22;62025;39.238;9.126;2024-02-16T11:58:26;17.80;57.90
63047;DHT22;62025;39.238;9.126;2024-02-16T12:00:52;17.50;59.60
63047;DHT22;62025;39.238;9.126;2024-02-16T12:03:22;17.40;60.50
63047;DHT22;62025;39.238;9.126;2024-02-16T12:08:22;17.50;61.00
63047;DHT22;62025;39.238;9.126;2024-02-16T12:10:50;17.30;61.80
63047;DHT22;62025;39.238;9.126;2024-02-16T12:13:20;17.30;62.00
63047;DHT22;62025;39.238;9.126;2024-02-16T12:15:50;17.40;62.20
63047;DHT22;62025;39.238;9.126;2024-02-16T12:18:27;17.40;61.60
63047;DHT22;62025;39.238;9.126;2024-02-16T12:21:00;17.40;61.80
63047;DHT22;62025;39.238;9.126;2024-02-16T12:23:27;17.30;62.90
63047;DHT22;62025;39.238;9.126;2024-02-16T12:25:54;17.30;63.10
63047;DHT22;62025;39.238;9.126;2024-02-16T12:28:25;17.30;63.10
63047;DHT22;62025;39.238;9.126;2024-02-16T12:30:54;17.30;63.50
63047;DHT22;62025;39.238;9.126;2024-02-16T12:33:21;17.40;63.50
63047;DHT22;62025;39.238;9.126;2024-02-16T12:35:51;17.30;63.30
63047;DHT22;62025;39.238;9.126;2024-02-16T12:38:17;17.10;64.00
63047;DHT22;62025;39.238;9.126;2024-02-16T12:40:45;17.10;64.00
63047;DHT22;62025;39.238;9.126;2024-02-16T12:43:12;17.00;64.70
63047;DHT22;62025;39.238;9.126;2024-02-16T12:45:40;17.00;65.10
63047;DHT22;62025;39.238;9.126;2024-02-16T12:48:06;17.00;65.50
63047;DHT22;62025;39.238;9.126;2024-02-16T12:50:33;17.10;65.30
63047;DHT22;62025;39.238;9.126;2024-02-16T12:52:59;16.90;66.00
63047;DHT22;62025;39.238;9.126;2024-02-16T12:55:25;17.00;65.50
63047;DHT22;62025;39.238;9.126;2024-02-16T12:57:51;17.00;65.70
63047;DHT22;62025;39.238;9.126;2024-02-16T13:00:17;17.10;65.20
63047;DHT22;62025;39.238;9.126;2024-02-16T13:02:44;17.00;65.00
63047;DHT22;62025;39.238;9.126;2024-02-16T13:05:10;17.00;65.50
63047;DHT22;62025;39.238;9.126;2024-02-16T13:07:39;16.90;65.60
63047;DHT22;62025;39.238;9.126;2024-02-16T13:10:08;17.10;65.60
63047;DHT22;62025;39.238;9.126;2024-02-16T13:12:34;17.00;66.60
63047;DHT22;62025;39.238;9.126;2024-02-16T13:15:03;16.80;67.00
63047;DHT22;62025;39.238;9.126;2024-02-16T13:17:31;17.00;67.10
63047;DHT22;62025;39.238;9.126;2024-02-16T13:19:56;17.00;66.90
63047;DHT22;62025;39.238;9.126;2024-02-16T13:22:38;16.90;67.50
63047;DHT22;62025;39.238;9.126;2024-02-16T13:25:05;17.10;67.00
63047;DHT22;62025;39.238;9.126;2024-02-16T13:27:35;16.90;67.60
63047;DHT22;62025;39.238;9.126;2024-02-16T13:30:01;16.90;68.20
63047;DHT22;62025;39.238;9.126;2024-02-16T13:32:27;17.00;67.70
63047;DHT22;62025;39.238;9.126;2024-02-16T13:34:53;16.90;67.90
63047;DHT22;62025;39.238;9.126;2024-02-16T13:37:22;16.90;68.10
63047;DHT22;62025;39.238;9.126;2024-02-16T13:39:48;17.00;67.70
63047;DHT22;62025;39.238;9.126;2024-02-16T13:42:15;16.90;68.00
63047;DHT22;62025;39.238;9.126;2024-02-16T13:44:41;17.00;67.90
63047;DHT22;62025;39.238;9.126;2024-02-16T13:47:07;17.00;68.10
63047;DHT22;62025;39.238;9.126;2024-02-16T13:49:34;16.90;68.10
63047;DHT22;62025;39.238;9.126;2024-02-16T13:52:00;16.90;68.10
63047;DHT22;62025;39.238;9.126;2024-02-16T13:54:26;16.90;68.20
63047;DHT22;62025;39.238;9.126;2024-02-16T13:56:52;16.90;68.30
63047;DHT22;62025;39.238;9.126;2024-02-16T13:59:19;16.90;68.40
63047;DHT22;62025;39.238;9.126;2024-02-16T14:01:45;16.90;68.60
63047;DHT22;62025;39.238;9.126;2024-02-16T14:04:11;17.00;68.40
63047;DHT22;62025;39.238;9.126;2024-02-16T14:06:38;17.00;68.40
63047;DHT22;62025;39.238;9.126;2024-02-16T14:09:04;16.90;68.50
63047;DHT22;62025;39.238;9.126;2024-02-16T14:11:37;16.90;68.90
63047;DHT22;62025;39.238;9.126;2024-02-16T14:14:03;17.00;68.30
63047;DHT22;62025;39.238;9.126;2024-02-16T14:16:29;17.00;67.80
63047;DHT22;62025;39.238;9.126;2024-02-16T14:18:56;16.90;68.00
63047;DHT22;62025;39.238;9.126;2024-02-16T14:21:22;16.90;68.10
63047;DHT22;62025;39.238;9.126;2024-02-16T14:23:48;16.90;68.00
63047;DHT22;62025;39.238;9.126;2024-02-16T14:26:14;17.00;68.20
63047;DHT22;62025;39.238;9.126;2024-02-16T14:28:40;16.90;68.10
63047;DHT22;62025;39.238;9.126;2024-02-16T14:31:06;16.90;68.30
63047;DHT22;62025;39.238;9.126;2024-02-16T14:33:32;17.00;68.20
63047;DHT22;62025;39.238;9.126;2024-02-16T14:36:01;16.90;68.60
63047;DHT22;62025;39.238;9.126;2024-02-16T14:38:27;17.00;68.10
63047;DHT22;62025;39.238;9.126;2024-02-16T14:40:53;16.90;68.30
63047;DHT22;62025;39.238;9.126;2024-02-16T14:43:19;17.00;68.20
63047;DHT22;62025;39.238;9.126;2024-02-16T14:45:48;17.00;68.30
63047;DHT22;62025;39.238;9.126;2024-02-16T14:48:14;17.00;68.50
63047;DHT22;62025;39.238;9.126;2024-02-16T14:50:40;17.00;68.20
63047;DHT22;62025;39.238;9.126;2024-02-16T14:53:06;17.00;68.10
63047;DHT22;62025;39.238;9.126;2024-02-16T14:55:32;17.00;68.20
63047;DHT22;62025;39.238;9.126;2024-02-16T14:57:58;17.00;68.20
63047;DHT22;62025;39.238;9.126;2024-02-16T15:00:24;17.00;68.50
63047;DHT22;62025;39.238;9.126;2024-02-16T15:02:50;17.10;68.40
63047;DHT22;62025;39.238;9.126;2024-02-16T15:05:16;17.10;68.50
63047;DHT22;62025;39.238;9.126;2024-02-16T15:07:42;17.20;68.40
63047;DHT22;62025;39.238;9.126;2024-02-16T15:10:09;17.30;68.40
63047;DHT22;62025;39.238;9.126;2024-02-16T15:12:36;17.20;68.50
63047;DHT22;62025;39.238;9.126;2024-02-16T15:15:06;17.00;68.80
63047;DHT22;62025;39.238;9.126;2024-02-16T15:17:32;17.00;68.80
63047;DHT22;62025;39.238;9.126;2024-02-16T15:19:58;17.10;68.90
63047;DHT22;62025;39.238;9.126;2024-02-16T15:22:24;17.00;69.10
63047;DHT22;62025;39.238;9.126;2024-02-16T15:24:51;17.20;68.80
63047;DHT22;62025;39.238;9.126;2024-02-16T15:27:17;17.10;68.70
63047;DHT22;62025;39.238;9.126;2024-02-16T15:29:43;17.00;68.80
63047;DHT22;62025;39.238;9.126;2024-02-16T15:32:10;17.00;68.60
63047;DHT22;62025;39.238;9.126;2024-02-16T15:34:36;17.00;68.10
63047;DHT22;62025;39.238;9.126;2024-02-16T15:37:02;17.00;68.30